FZ338 / A6-FGB 7700 Squawk Report (21st of September, 2019)

Aircraft B738 Reg No. A6-FGB Age 3 years old
Model 737 Jet engines 2 First flight 10-06-16
Registered 20-06-16 Rollout N/A Delivered 20-06-16
Construction No. 60955 Line No. 5950 Series 8KN
ADSHEX 896469 Airline name FlyDubai Owner N/A
Airfield based Dubai~ ~A6 First tracked 2017-07-13 08:52:00
Time Lat Lon Altitude Heading Speed Vertical Rate
2019-09-21 08:51:49 GMT 25.266146 55.351414 0 300 18 0
2019-09-21 08:51:30 GMT 25.265259 55.353012 0 300 24 0
2019-09-21 08:50:47 GMT 25.262730 55.357563 0 300 23 0
2019-09-21 08:50:30 GMT 25.261814 55.359230 0 300 23 0
2019-09-21 08:50:23 GMT 25.261425 55.359928 0 300 25 0
2019-09-21 08:50:04 GMT 25.260292 55.361977 0 300 27 0
2019-09-21 08:49:56 GMT 25.259766 55.362942 0 300 27 0
2019-09-21 08:49:42 GMT 25.258837 55.364616 0 300 30 0
2019-09-21 08:49:33 GMT 25.258255 55.365639 0 300 29 0
2019-09-21 08:49:09 GMT 25.256596 55.368652 0 300 27 0
2019-09-21 08:49:02 GMT 25.256149 55.369442 0 300 26 0
2019-09-21 08:48:48 GMT 25.255280 55.371029 0 300 24 0
2019-09-21 08:48:41 GMT 25.254913 55.371677 0 300 23 0
2019-09-21 08:48:30 GMT 25.254345 55.372700 0 300 15 0
2019-09-21 08:48:20 GMT 25.254032 55.373241 0 315 12 0
2019-09-21 08:48:09 GMT 25.253517 55.373421 0 28 12 0
2019-09-21 08:47:58 GMT 25.252808 55.372952 0 30 23 0
2019-09-21 08:47:47 GMT 25.251904 55.372353 0 30 17 0
2019-09-21 08:47:34 GMT 25.251171 55.371883 0 11 12 0
2019-09-21 08:47:27 GMT 25.250818 55.371883 0 323 11 0
2019-09-21 08:47:10 GMT 25.250072 55.373077 0 300 24 0
2019-09-21 08:46:58 GMT 25.249306 55.374409 0 315 30 0
2019-09-21 08:46:55 GMT 25.248945 55.374760 0 323 40 0
2019-09-21 08:46:44 GMT 25.247093 55.375927 0 326 48 0
2019-09-21 08:46:33 GMT 25.245380 55.377895 0 300 63 0
2019-09-21 08:46:23 GMT 25.243591 55.381134 0 300 78 0
2019-09-21 08:46:13 GMT 25.241730 55.384483 0 300 82 0
2019-09-21 08:46:01 GMT 25.239212 55.388996 250 302 111 -64
2019-09-21 08:45:50 GMT 25.235916 55.395000 350 302 127 -512
2019-09-21 08:45:40 GMT 25.232803 55.400593 475 302 131 -512
2019-09-21 08:45:29 GMT 25.229370 55.406750 575 302 127 -576
2019-09-21 08:45:18 GMT 25.225937 55.412952 700 302 127 -896
2019-09-21 08:45:07 GMT 25.222467 55.419186 800 302 129 -448
2019-09-21 08:44:54 GMT 25.218464 55.426334 950 302 132 -768
2019-09-21 08:44:43 GMT 25.214996 55.432587 1,075 302 137 -576
2019-09-21 08:44:32 GMT 25.211294 55.439342 1,200 302 132 -576
2019-09-21 08:44:21 GMT 25.207664 55.445770 1,300 302 132 -704
2019-09-21 08:44:10 GMT 25.204081 55.452351 1,425 302 134 -512
2019-09-21 08:43:57 GMT 25.200119 55.459442 1,575 302 136 -512
2019-09-21 08:43:47 GMT 25.196594 55.465698 1,675 301 139 -768
2019-09-21 08:43:35 GMT 25.192629 55.472820 1,825 302 141 -768
2019-09-21 08:43:24 GMT 25.188856 55.479816 1,950 302 143 -512
2019-09-21 08:43:12 GMT 25.184601 55.487316 2,075 302 149 -704
2019-09-21 08:43:01 GMT 25.180527 55.494690 2,225 302 156 -576
2019-09-21 08:42:50 GMT 25.176056 55.502514 2,275 301 159 64
2019-09-21 08:42:39 GMT 25.171921 55.510101 2,250 302 167 -128
2019-09-21 08:42:27 GMT 25.167343 55.518341 2,275 301 174 -256
2019-09-21 08:42:17 GMT 25.162928 55.526611 2,350 300 176 -896
2019-09-21 08:42:06 GMT 25.158691 55.534771 2,500 301 174 -256
2019-09-21 08:41:55 GMT 25.153610 55.543262 2,600 313 174 -512
2019-09-21 08:41:44 GMT 25.147053 55.549156 2,650 334 178 -384
2019-09-21 08:41:34 GMT 25.139282 55.553387 2,700 334 182 -384
2019-09-21 08:41:23 GMT 25.130899 55.557861 2,775 335 185 -640
2019-09-21 08:41:12 GMT 25.122025 55.562592 2,875 334 183 -192
2019-09-21 08:41:02 GMT 25.114794 55.566517 2,975 334 182 -384
2019-09-21 08:40:52 GMT 25.106827 55.570782 3,050 335 186 -640
2019-09-21 08:40:40 GMT 25.097242 55.575741 3,200 338 188 -768
2019-09-21 08:40:29 GMT 25.088791 55.578259 3,275 0 192 -704
2019-09-21 08:40:17 GMT 25.077877 55.575844 3,400 27 196 -512
2019-09-21 08:40:09 GMT 25.071487 55.571796 3,475 32 196 -704
2019-09-21 08:39:58 GMT 25.063110 55.565899 3,550 32 198 -576
2019-09-21 08:39:47 GMT 25.054602 55.559727 3,675 34 200 -640
2019-09-21 08:39:37 GMT 25.046585 55.553791 3,775 33 204 -256
2019-09-21 08:39:26 GMT 25.038120 55.547756 3,800 32 209 -64
2019-09-21 08:39:14 GMT 25.028067 55.540604 3,875 32 217 -640
2019-09-21 08:39:04 GMT 25.019407 55.534489 3,975 33 217 -704
2019-09-21 08:38:52 GMT 25.009644 55.527344 4,075 33 220 -448
2019-09-21 08:38:43 GMT 25.001810 55.521690 4,150 33 213 -512
2019-09-21 08:38:31 GMT 24.992020 55.514729 4,225 32 216 -640
2019-09-21 08:38:21 GMT 24.983597 55.508831 4,275 33 218 64
2019-09-21 08:38:11 GMT 24.973740 55.501686 4,275 32 224 -64
2019-09-21 08:38:00 GMT 24.964802 55.495365 4,275 32 226 64
2019-09-21 08:37:47 GMT 24.954374 55.487125 4,275 62 243 64
2019-09-21 08:37:39 GMT 24.948578 55.479279 4,275 62 238 0
2019-09-21 08:37:24 GMT 24.940920 55.463596 4,275 62 243 -64
2019-09-21 08:37:15 GMT 24.936266 55.453800 4,275 61 242 64
2019-09-21 08:37:06 GMT 24.931412 55.443775 4,275 61 242 320
2019-09-21 08:36:56 GMT 24.925873 55.432281 4,275 62 246 -64
2019-09-21 08:36:45 GMT 24.919739 55.419083 4,275 68 252 -128
2019-09-21 08:36:34 GMT 24.916443 55.405121 4,300 87 253 64
2019-09-21 08:36:22 GMT 24.916534 55.391491 4,275 92 259 0
2019-09-21 08:36:13 GMT 24.917086 55.377522 4,275 92 259 -64
2019-09-21 08:36:06 GMT 24.917450 55.369465 4,275 92 259 -64
2019-09-21 08:36:03 GMT 24.917633 55.363972 4,275 92 257 -64
2019-09-21 08:35:58 GMT 24.917816 55.358837 4,275 92 257 64
2019-09-21 08:35:47 GMT 24.918297 55.345028 4,275 92 257 64
2019-09-21 08:35:37 GMT 24.918715 55.332848 4,275 92 259 -128
2019-09-21 08:35:34 GMT 24.918947 55.328030 4,275 92 258 64
2019-09-21 08:35:30 GMT 24.919189 55.321857 4,275 93 260 -192
2019-09-21 08:35:26 GMT 24.919418 55.317486 4,275 93 261 -64
2019-09-21 08:35:20 GMT 24.919830 55.308685 4,300 93 260 0
2019-09-21 08:35:16 GMT 24.920158 55.302998 4,300 93 259 64
2019-09-21 08:35:04 GMT 24.921478 55.288342 4,300 115 252 512
2019-09-21 08:34:55 GMT 24.925323 55.276489 4,225 120 253 832
2019-09-21 08:34:43 GMT 24.932922 55.265198 4,050 138 253 1024
2019-09-21 08:34:33 GMT 24.943451 55.257160 3,900 156 255 1024
2019-09-21 08:34:23 GMT 24.953888 55.253551 3,700 173 252 1152
2019-09-21 08:34:05 GMT 24.975695 55.256672 3,525 197 248 1024
2019-09-21 08:34:01 GMT 24.978745 55.258434 3,350 209 246 1152
2019-09-21 08:33:52 GMT 24.986076 55.264755 3,200 232 242 1152
2019-09-21 08:33:44 GMT 24.991974 55.273693 3,150 234 242 1088
2019-09-21 08:33:41 GMT 24.993988 55.277966 2,975 244 239 960
2019-09-21 08:33:30 GMT 24.999157 55.289421 2,825 244 239 832
2019-09-21 08:33:19 GMT 25.004517 55.301208 2,675 243 239 576
2019-09-21 08:33:08 GMT 25.009817 55.312485 2,550 244 237 192
2019-09-21 08:32:56 GMT 25.016706 55.327099 2,450 243 224 832
2019-09-21 08:32:50 GMT 25.020081 55.334064 2,300 242 212 1280
We lost coverage of the aircraft here for a total of 295 minutes
2019-09-21 03:37:59 GMT 25.027405 55.405529 725 269 153 -768
2019-09-21 03:37:54 GMT 25.027414 55.408562 775 270 155 -768
2019-09-21 03:37:26 GMT 25.027679 55.430553 1,125 269 155 -704
2019-09-21 03:37:23 GMT 25.027740 55.433071 1,175 270 155 -768
2019-09-21 03:37:11 GMT 25.027786 55.442451 1,350 270 156 -832
2019-09-21 03:37:01 GMT 25.027817 55.450542 1,475 269 156 -768
2019-09-21 03:36:52 GMT 25.027880 55.458309 1,600 269 156 -768
2019-09-21 03:36:41 GMT 25.028019 55.466396 1,725 269 158 -704
2019-09-21 03:36:28 GMT 25.028183 55.476837 2,100 270 180 -1024
2019-09-21 03:36:20 GMT 25.028275 55.484161 1,975 270 172 -768
2019-09-21 03:36:07 GMT 25.028366 55.496723 2,175 270 180 -1024
2019-09-21 03:35:58 GMT 25.028393 55.503811 2,450 270 181 -1152
2019-09-21 03:35:44 GMT 25.028595 55.516460 2,450 270 185 -192
2019-09-21 03:35:37 GMT 25.028687 55.523121 2,450 269 189 -64
2019-09-21 03:35:27 GMT 25.028950 55.533401 2,425 268 192 256
2019-09-21 03:35:16 GMT 25.029230 55.543713 2,425 274 193 0
2019-09-21 03:35:05 GMT 25.027786 55.554180 2,425 293 195 0
2019-09-21 03:34:54 GMT 25.023130 55.563770 2,425 302 196 0
2019-09-21 03:34:44 GMT 25.018196 55.572319 2,425 308 201 -192
2019-09-21 03:34:34 GMT 25.011520 55.579731 2,450 329 207 -192
2019-09-21 03:34:24 GMT 25.001997 55.583878 2,450 354 214 64
2019-09-21 03:34:13 GMT 24.991243 55.583408 2,425 17 219 192
2019-09-21 03:34:02 GMT 24.981234 55.578537 2,425 31 225 64
2019-09-21 03:33:51 GMT 24.971413 55.571751 2,400 32 229 64
2019-09-21 03:33:39 GMT 24.960571 55.564270 2,400 32 233 0
2019-09-21 03:33:16 GMT 24.939606 55.549519 2,600 33 235 -640
2019-09-21 03:33:08 GMT 24.932144 55.544128 2,650 33 241 -448
2019-09-21 03:32:59 GMT 24.923510 55.537857 2,750 33 248 -640
2019-09-21 03:32:45 GMT 24.909851 55.527851 2,900 33 258 -768
2019-09-21 03:32:34 GMT 24.899395 55.520134 3,000 33 262 -832
2019-09-21 03:32:27 GMT 24.890396 55.513508 3,150 32 271 -768
2019-09-21 03:32:15 GMT 24.878815 55.506592 3,325 17 280 -896
2019-09-21 03:32:05 GMT 24.865227 55.503605 3,425 0 283 -512
2019-09-21 03:31:53 GMT 24.850748 55.505936 3,525 342 285 -448
2019-09-21 03:31:45 GMT 24.840834 55.511120 3,625 324 289 -768
2019-09-21 03:31:32 GMT 24.828032 55.524799 3,900 302 290 -1856
2019-09-21 03:31:24 GMT 24.822830 55.536602 4,175 286 293 -1664
2019-09-21 03:31:13 GMT 24.820351 55.552055 4,425 268 299 -1408
2019-09-21 03:31:03 GMT 24.822235 55.567577 4,650 250 309 -1088
2019-09-21 03:30:52 GMT 24.827938 55.581493 4,825 226 321 -1600
2019-09-21 03:30:40 GMT 24.841141 55.596973 5,100 216 326 -768
2019-09-21 03:30:30 GMT 24.852285 55.604137 5,200 202 335 -704
2019-09-21 03:30:20 GMT 24.869043 55.609062 5,375 184 343 -1024
2019-09-21 03:30:11 GMT 24.884453 55.609840 5,675 182 346 -1856
2019-09-21 03:29:59 GMT 24.901026 55.610203 5,900 182 349 -1600
2019-09-21 03:29:50 GMT 24.917690 55.610615 6,200 182 351 -1984
2019-09-21 03:29:38 GMT 24.935440 55.611065 6,575 182 351 -2048
2019-09-21 03:29:27 GMT 24.953348 55.611603 6,925 182 352 -2048
2019-09-21 03:29:17 GMT 24.969727 55.612133 7,275 182 353 -2112
2019-09-21 03:29:07 GMT 24.987240 55.612740 7,675 183 353 -2176
2019-09-21 03:28:56 GMT 25.004288 55.613453 8,050 183 353 -2112
2019-09-21 03:28:46 GMT 25.021175 55.614243 8,400 183 354 -1984
2019-09-21 03:28:36 GMT 25.038895 55.615185 8,775 183 355 -1984
2019-09-21 03:28:25 GMT 25.055923 55.616100 9,125 184 356 -2048
2019-09-21 03:28:14 GMT 25.073593 55.617168 9,500 184 357 -2112
2019-09-21 03:28:04 GMT 25.090725 55.618286 9,850 184 358 -2112
2019-09-21 03:27:53 GMT 25.108183 55.619476 10,200 184 360 -1920
2019-09-21 03:27:42 GMT 25.125961 55.620777 10,525 184 363 -1920
2019-09-21 03:27:32 GMT 25.143841 55.622173 10,900 185 365 -2368
2019-09-21 03:27:24 GMT 25.159576 55.623466 11,175 185 370 -1280
2019-09-21 03:27:21 GMT 25.162136 55.623676 11,200 185 372 -704
2019-09-21 03:27:11 GMT 25.180252 55.625153 11,200 185 384 -64
2019-09-21 03:27:00 GMT 25.199797 55.626785 11,225 185 385 0
2019-09-21 03:26:53 GMT 25.212831 55.627823 11,225 185 385 0
2019-09-21 03:26:49 GMT 25.218155 55.628254 11,225 185 385 0
2019-09-21 03:26:43 GMT 25.232758 55.629425 11,225 185 385 0
2019-09-21 03:26:38 GMT 25.239212 55.629932 11,225 185 384 -64
2019-09-21 03:26:31 GMT 25.251099 55.630829 11,225 185 384 0
2019-09-21 03:26:28 GMT 25.256470 55.631256 11,225 185 384 0
2019-09-21 03:26:18 GMT 25.274460 55.632732 11,225 185 385 0
2019-09-21 03:26:10 GMT 25.288330 55.633850 11,225 185 384 0
2019-09-21 03:26:07 GMT 25.294531 55.634350 11,225 185 384 -64
2019-09-21 03:25:57 GMT 25.312180 55.635784 11,225 185 384 0
2019-09-21 03:25:50 GMT 25.325115 55.636841 11,225 185 384 0
2019-09-21 03:25:45 GMT 25.332563 55.637459 11,225 185 384 0
2019-09-21 03:25:39 GMT 25.344498 55.638428 11,225 185 383 0
2019-09-21 03:25:35 GMT 25.349789 55.638859 11,225 185 383 0
2019-09-21 03:25:29 GMT 25.363476 55.639999 11,225 185 383 0
2019-09-21 03:25:25 GMT 25.368082 55.640415 11,225 185 383 0
2019-09-21 03:25:17 GMT 25.383120 55.641659 11,225 185 383 0
2019-09-21 03:25:14 GMT 25.387390 55.641987 11,225 185 383 0
2019-09-21 03:25:08 GMT 25.400717 55.643108 11,225 186 382 0
2019-09-21 03:25:04 GMT 25.406210 55.643784 11,225 189 381 -64
2019-09-21 03:24:56 GMT 25.420807 55.647278 11,225 199 382 0
2019-09-21 03:24:50 GMT 25.429413 55.650837 11,225 202 382 0
2019-09-21 03:24:46 GMT 25.437744 55.655468 11,225 211 384 -64
2019-09-21 03:24:41 GMT 25.443420 55.659382 11,225 214 388 -64
2019-09-21 03:24:36 GMT 25.452713 55.666302 11,225 215 390 0
2019-09-21 03:24:32 GMT 25.457336 55.669811 11,225 215 389 64
2019-09-21 03:24:26 GMT 25.469238 55.678864 11,225 216 390 0
2019-09-21 03:24:19 GMT 25.476784 55.684772 11,225 216 392 -64
2019-09-21 03:24:09 GMT 25.491760 55.694477 11,225 204 392 0
2019-09-21 03:24:00 GMT 25.507141 55.700428 11,225 193 387 0
2019-09-21 03:23:50 GMT 25.525059 55.703896 11,225 189 383 0
2019-09-21 03:23:38 GMT 25.545593 55.707397 11,225 189 383 -64
2019-09-21 03:23:32 GMT 25.557541 55.709381 11,225 189 382 0
2019-09-21 03:23:25 GMT 25.568436 55.711163 11,225 189 383 -64
2019-09-21 03:23:17 GMT 25.582855 55.713451 11,225 194 382 0
2019-09-21 03:23:12 GMT 25.593018 55.715534 11,225 194 382 0
2019-09-21 03:22:35 GMT 25.652843 55.739964 11,225 202 388 64
2019-09-21 03:22:26 GMT 25.669044 55.747169 11,225 202 388 64
2019-09-21 03:22:11 GMT 25.693066 55.757793 11,225 202 386 0
2019-09-21 03:22:03 GMT 25.707367 55.763958 11,225 202 381 192
2019-09-21 03:21:53 GMT 25.723480 55.770977 11,200 202 377 128
2019-09-21 03:21:42 GMT 25.741480 55.778728 11,225 202 370 -192
2019-09-21 03:21:33 GMT 25.755066 55.784557 11,300 202 364 -960
2019-09-21 03:21:23 GMT 25.771923 55.791786 11,575 202 365 -2048
2019-09-21 03:21:13 GMT 25.789307 55.799358 11,900 202 368 -1536
2019-09-21 03:21:08 GMT 25.794525 55.801647 12,000 202 368 -1600
2019-09-21 03:21:01 GMT 25.806513 55.806866 12,150 202 375 -640
2019-09-21 03:20:50 GMT 25.823969 55.814693 12,550 203 374 -3392
2019-09-21 03:20:41 GMT 25.839611 55.821693 13,075 203 372 -3648
2019-09-21 03:20:13 GMT 25.883011 55.841068 14,925 202 354 -2496
2019-09-21 03:20:07 GMT 25.892029 55.844986 15,150 202 354 -2048
2019-09-21 03:19:57 GMT 25.908875 55.852318 15,425 202 355 -1600
2019-09-21 03:19:47 GMT 25.922380 55.858295 15,675 202 356 -1600
2019-09-21 03:19:38 GMT 25.938538 55.865479 15,925 202 358 -1536
2019-09-21 03:19:25 GMT 25.956783 55.873562 16,250 202 360 -1600
2019-09-21 03:19:16 GMT 25.970469 55.879581 16,475 202 363 -1600
2019-09-21 03:19:06 GMT 25.987694 55.887188 16,775 202 366 -1536
2019-09-21 03:18:55 GMT 26.004227 55.894550 17,050 202 367 -1472
2019-09-21 03:18:45 GMT 26.021303 55.902081 17,300 202 369 -1472
2019-09-21 03:18:32 GMT 26.040625 55.910690 17,625 202 371 -1600
2019-09-21 03:18:22 GMT 26.055845 55.917454 17,875 202 374 -1536
2019-09-21 03:18:10 GMT 26.074585 55.925747 18,200 202 376 -1600
2019-09-21 03:18:01 GMT 26.090012 55.932587 18,450 202 378 -1600
2019-09-21 03:17:51 GMT 26.107798 55.940479 18,750 202 381 -1664
2019-09-21 03:17:39 GMT 26.126047 55.948509 19,075 202 385 -1920
2019-09-21 03:17:28 GMT 26.143784 55.956326 19,450 202 385 -1920
2019-09-21 03:17:19 GMT 26.158541 55.962875 19,975 202 381 -960
2019-09-21 03:17:09 GMT 26.176163 55.970730 19,975 202 381 -960
2019-09-21 03:16:43 GMT 26.218546 55.989601 20,000 202 379 0
2019-09-21 03:16:35 GMT 26.231907 55.995571 20,000 203 379 0
2019-09-21 03:16:15 GMT 26.263092 56.009544 20,000 202 379 0
2019-09-21 03:16:05 GMT 26.280716 56.017471 20,000 201 380 0
2019-09-21 03:15:55 GMT 26.298431 56.024364 20,000 195 377 0
2019-09-21 03:15:35 GMT 26.329714 56.033707 20,000 195 377 0
2019-09-21 03:15:24 GMT 26.349380 56.039448 20,000 195 377 0
2019-09-21 03:15:19 GMT 26.359041 56.042316 20,000 195 377 0
2019-09-21 03:15:11 GMT 26.370726 56.045696 20,000 195 377 0
2019-09-21 03:15:00 GMT 26.391724 56.051830 20,000 195 377 0
2019-09-21 03:14:50 GMT 26.406290 56.056049 20,000 195 377 0
2019-09-21 03:14:41 GMT 26.422213 56.060696 20,000 195 378 0
2019-09-21 03:14:30 GMT 26.440384 56.065926 20,000 195 377 -64
2019-09-21 03:14:19 GMT 26.459036 56.071262 20,000 195 376 -64
2019-09-21 03:14:08 GMT 26.477423 56.076595 20,000 195 375 0
2019-09-21 03:13:58 GMT 26.493896 56.081371 20,000 195 374 0
2019-09-21 03:13:47 GMT 26.513031 56.086914 20,000 195 374 0
2019-09-21 03:13:37 GMT 26.529602 56.091736 20,000 195 373 64
2019-09-21 03:13:23 GMT 26.553085 56.098576 19,975 195 374 64
2019-09-21 03:13:17 GMT 26.564163 56.101788 19,975 195 374 128
2019-09-21 03:13:05 GMT 26.584307 56.107704 19,975 196 374 64
2019-09-21 03:12:54 GMT 26.602324 56.113094 20,050 196 378 -832
2019-09-21 03:12:34 GMT 26.635748 56.123287 20,375 196 379 -1856
2019-09-21 03:12:31 GMT 26.641008 56.124870 20,725 196 379 -1856
2019-09-21 03:12:23 GMT 26.655439 56.129257 21,075 195 380 -1856
2019-09-21 03:11:41 GMT 26.718424 56.167393 22,650 268 385 -1792
2019-09-21 03:11:30 GMT 26.729095 56.185898 22,650 268 385 -1792
2019-09-21 03:11:02 GMT 26.738434 56.241035 23,425 268 385 -1792
2019-09-21 03:10:57 GMT 26.738722 56.248997 23,550 268 385 -1792
2019-09-21 03:10:45 GMT 26.739532 56.272491 23,900 268 387 -1728
2019-09-21 03:10:38 GMT 26.740164 56.288506 24,125 268 388 -1728
2019-09-21 03:10:27 GMT 26.740955 56.310425 24,450 268 391 -1792
2019-09-21 03:10:13 GMT 26.741867 56.336906 24,975 268 394 -1728
2019-09-21 03:10:05 GMT 26.742416 56.354786 25,075 268 395 -1728
2019-09-21 03:09:51 GMT 26.743286 56.382561 25,475 269 397 -1792
2019-09-21 03:09:45 GMT 26.743744 56.398418 25,700 268 399 -1792
2019-09-21 03:09:30 GMT 26.744568 56.425678 26,100 271 401 -1728
2019-09-21 03:09:21 GMT 26.744202 56.444958 26,350 274 401 -1792
2019-09-21 03:09:12 GMT 26.742783 56.464184 26,625 279 402 -1728
2019-09-21 03:09:02 GMT 26.740082 56.485016 26,925 280 404 -1728
2019-09-21 03:08:51 GMT 26.736465 56.509579 27,275 280 406 -1792
2019-09-21 03:08:41 GMT 26.733719 56.528908 27,550 280 409 -1728
2019-09-21 03:08:31 GMT 26.730469 56.551659 27,875 279 411 -1792
2019-09-21 03:08:19 GMT 26.727177 56.574944 28,225 280 413 -1792
2019-09-21 03:08:09 GMT 26.724197 56.596020 28,525 280 414 -1856
2019-09-21 03:07:59 GMT 26.721125 56.617146 28,825 279 416 -1792
2019-09-21 03:07:46 GMT 26.717541 56.642445 29,175 279 418 -1792
2019-09-21 03:07:37 GMT 26.714329 56.664890 29,950 280 421 -1856
2019-09-21 03:07:26 GMT 26.711288 56.685928 29,950 280 423 -1856
2019-09-21 03:06:48 GMT 26.699387 56.769157 30,975 280 428 -1920
2019-09-21 03:06:21 GMT 26.691055 56.827198 31,800 280 433 -1856
2019-09-21 03:04:47 GMT 26.659607 57.039356 36,000 280 461 0
2019-09-21 03:03:27 GMT 26.631912 57.225555 36,000 280 461 0
2019-09-21 03:03:24 GMT 26.630207 57.237026 36,000 280 461 0
2019-09-21 03:03:13 GMT 26.626831 57.259808 36,000 280 461 0
2019-09-21 03:02:23 GMT 26.608793 57.380219 36,000 280 461 0
2019-09-21 03:02:20 GMT 26.608095 57.384918 36,000 280 461 0
2019-09-21 03:02:09 GMT 26.604263 57.410507 36,000 280 462 0
2019-09-21 03:01:39 GMT 26.593525 57.482159 36,000 280 462 0
2019-09-21 03:01:33 GMT 26.591848 57.493671 36,000 280 462 0
We lost coverage of the aircraft here for a total of 63 minutes
2019-09-21 01:58:38 GMT 27.363079 66.388000 36,000 263 455 0
2019-09-21 01:55:37 GMT 27.413086 66.808846 36,000 263 447 0
2019-09-21 01:53:09 GMT 27.452682 67.149834 36,000 263 446 0
2019-09-21 01:53:04 GMT 27.453964 67.161133 36,000 263 446 0
We lost coverage of the aircraft here for a total of 5 minutes
2019-09-21 01:47:40 GMT 27.574614 67.904434 36,000 260 447 0
2019-09-21 01:47:31 GMT 27.577789 67.923386 36,000 260 447 0
2019-09-21 01:47:20 GMT 27.582153 67.949013 36,000 260 447 0
We lost coverage of the aircraft here for a total of 42 minutes
2019-09-21 01:04:51 GMT 30.617889 72.813774 33,100 226 465 1024
2019-09-21 01:04:00 GMT 30.695616 72.904556 32,225 226 467 1024
2019-09-21 01:03:49 GMT 30.711777 72.923477 32,050 226 468 1088
2019-09-21 01:03:38 GMT 30.727798 72.942268 31,850 226 468 1088
2019-09-21 01:03:27 GMT 30.744215 72.961632 31,675 226 468 1024
2019-09-21 01:03:18 GMT 30.759430 72.979538 31,500 226 468 1024
2019-09-21 01:03:06 GMT 30.777361 73.000748 31,300 226 468 960
2019-09-21 01:02:56 GMT 30.792862 73.019035 31,150 226 468 896
2019-09-21 01:02:44 GMT 30.811018 73.040298 30,950 226 467 896
2019-09-21 01:02:34 GMT 30.825169 73.056885 30,825 226 467 960
2019-09-21 01:00:40 GMT 30.998112 73.259529 28,775 226 463 960
2019-09-21 01:00:34 GMT 31.007467 73.270569 28,700 226 463 960
2019-09-21 01:00:23 GMT 31.024179 73.290291 28,525 226 462 960
2019-09-21 01:00:13 GMT 31.040405 73.309448 28,350 226 461 960
2019-09-21 01:00:03 GMT 31.055370 73.327148 28,175 226 460 1024
2019-09-21 00:59:52 GMT 31.072449 73.347260 28,000 226 458 1024
2019-09-21 00:59:40 GMT 31.089865 73.367851 27,800 226 458 960
2019-09-21 00:59:30 GMT 31.103552 73.384003 27,650 226 457 1024
2019-09-21 00:59:20 GMT 31.120193 73.403641 27,450 226 456 960
2019-09-21 00:59:08 GMT 31.136744 73.423225 27,275 226 453 1024
2019-09-21 00:58:58 GMT 31.151594 73.440804 27,100 226 452 1024
2019-09-21 00:58:47 GMT 31.168945 73.461319 26,900 226 451 1024
2019-09-21 00:58:29 GMT 31.193573 73.490562 26,600 226 449 1088
2019-09-21 00:58:24 GMT 31.200989 73.499344 26,500 226 447 1088
2019-09-21 00:58:15 GMT 31.215042 73.516037 26,325 226 446 1088
2019-09-21 00:58:03 GMT 31.231943 73.536163 26,100 226 444 1280
2019-09-21 00:57:53 GMT 31.246307 73.553307 25,900 226 444 1216
2019-09-21 00:57:42 GMT 31.262110 73.572197 25,675 226 444 1280
2019-09-21 00:57:30 GMT 31.277983 73.591316 25,425 227 443 1408
2019-09-21 00:57:19 GMT 31.293777 73.610390 25,200 227 442 1088
2019-09-21 00:57:09 GMT 31.308655 73.628487 24,975 227 441 1408
2019-09-21 00:56:58 GMT 31.324402 73.647552 24,725 227 440 1280
2019-09-21 00:56:47 GMT 31.340698 73.667152 24,450 226 440 1280
2019-09-21 00:56:32 GMT 31.362854 73.693115 24,125 225 439 1536
2019-09-21 00:56:26 GMT 31.371134 73.702553 24,000 225 439 1216
2019-09-21 00:56:15 GMT 31.387161 73.720688 23,800 225 437 1280
2019-09-21 00:56:04 GMT 31.401810 73.737274 23,600 225 434 1088
2019-09-21 00:55:53 GMT 31.417967 73.755562 23,400 225 431 1088
2019-09-21 00:55:41 GMT 31.435375 73.775284 23,175 225 427 1024
2019-09-21 00:55:31 GMT 31.450104 73.791992 22,950 225 424 1280
2019-09-21 00:55:21 GMT 31.463058 73.806694 22,775 225 421 1216
2019-09-21 00:55:09 GMT 31.479355 73.825272 22,550 225 417 1216
2019-09-21 00:54:58 GMT 31.493866 73.841805 22,325 225 414 1152
2019-09-21 00:54:49 GMT 31.508011 73.857857 22,050 225 412 1856
2019-09-21 00:54:38 GMT 31.523392 73.875305 21,700 225 412 2176
2019-09-21 00:54:27 GMT 31.538315 73.892319 21,325 225 412 1664
2019-09-21 00:54:15 GMT 31.554382 73.910576 20,900 225 413 2560
2019-09-21 00:54:05 GMT 31.567429 73.925491 20,500 225 415 2240
2019-09-21 00:53:54 GMT 31.582764 73.942886 20,075 225 416 2176
2019-09-21 00:53:44 GMT 31.597275 73.959419 19,700 225 416 2304
2019-09-21 00:53:33 GMT 31.612183 73.976440 19,325 225 415 1792
2019-09-21 00:53:22 GMT 31.627266 73.993690 19,000 225 412 1664
2019-09-21 00:53:10 GMT 31.643097 74.011772 18,750 225 406 1088
2019-09-21 00:52:59 GMT 31.657476 74.028183 18,475 225 403 1920
2019-09-21 00:52:48 GMT 31.672073 74.044945 18,150 225 398 1344
2019-09-21 00:52:39 GMT 31.685501 74.060318 17,900 225 394 1856
2019-09-21 00:52:27 GMT 31.700724 74.077789 17,475 225 392 2240
2019-09-21 00:52:17 GMT 31.713959 74.092979 17,100 225 391 2048
2019-09-21 00:52:05 GMT 31.728012 74.109192 16,725 225 388 2432
2019-09-21 00:51:54 GMT 31.741364 74.124588 16,325 225 388 2240
2019-09-21 00:51:43 GMT 31.755562 74.141014 15,900 225 387 2240
2019-09-21 00:51:33 GMT 31.770126 74.157822 15,475 224 386 2176
2019-09-21 00:51:23 GMT 31.783913 74.172401 15,125 221 382 1984
2019-09-21 00:51:11 GMT 31.799183 74.187874 14,700 221 380 2368
2019-09-21 00:51:00 GMT 31.812607 74.201492 14,350 221 377 1856
2019-09-21 00:50:50 GMT 31.826614 74.215721 14,000 221 374 2048
2019-09-21 00:50:39 GMT 31.841219 74.230583 13,600 221 370 2048
2019-09-21 00:50:28 GMT 31.855324 74.244934 13,275 221 366 1920
2019-09-21 00:50:18 GMT 31.868498 74.258331 12,925 221 362 1856
2019-09-21 00:50:06 GMT 31.882744 74.272903 12,550 222 359 2368
2019-09-21 00:49:56 GMT 31.895828 74.286255 12,175 222 356 1920
2019-09-21 00:49:45 GMT 31.909973 74.300644 11,900 221 349 896
2019-09-21 00:49:35 GMT 31.922470 74.313339 11,750 221 339 1024
2019-09-21 00:49:23 GMT 31.935516 74.326576 11,575 221 328 960
2019-09-21 00:49:13 GMT 31.947590 74.338821 11,400 221 318 896
2019-09-21 00:49:01 GMT 31.960419 74.351791 11,200 221 307 1216
2019-09-21 00:48:51 GMT 31.971100 74.362587 11,025 221 297 832
2019-09-21 00:48:39 GMT 31.982437 74.374092 10,700 222 292 2112
2019-09-21 00:48:29 GMT 31.994202 74.386284 10,275 223 290 2176
2019-09-21 00:48:19 GMT 32.003632 74.396561 9,875 222 289 2496
2019-09-21 00:48:08 GMT 32.015369 74.407539 9,425 209 289 2432
2019-09-21 00:47:56 GMT 32.028683 74.414719 8,950 192 291 2624
2019-09-21 00:47:45 GMT 32.043228 74.417099 8,450 182 290 3008
2019-09-21 00:47:35 GMT 32.057373 74.417595 8,075 182 288 1024
2019-09-21 00:47:25 GMT 32.071564 74.418037 8,000 182 284 0
2019-09-21 00:47:14 GMT 32.086075 74.418533 8,000 182 285 0
2019-09-21 00:47:03 GMT 32.100174 74.419022 8,000 182 285 0
2019-09-21 00:46:51 GMT 32.116016 74.419540 8,000 182 284 0
2019-09-21 00:46:40 GMT 32.130249 74.420013 8,000 182 284 0
2019-09-21 00:46:30 GMT 32.142876 74.420433 8,000 182 283 0
2019-09-21 00:46:20 GMT 32.157303 74.420891 8,000 182 282 0
2019-09-21 00:46:09 GMT 32.171787 74.421333 8,000 182 281 0
2019-09-21 00:45:58 GMT 32.185986 74.421776 8,000 182 281 0
2019-09-21 00:45:47 GMT 32.200134 74.422173 8,000 182 281 0
2019-09-21 00:45:35 GMT 32.214661 74.422562 8,000 182 282 0
2019-09-21 00:45:25 GMT 32.228256 74.422981 8,000 182 283 0
2019-09-21 00:45:15 GMT 32.242584 74.423416 8,000 182 284 64
2019-09-21 00:45:04 GMT 32.256603 74.423851 8,000 182 286 64
2019-09-21 00:44:53 GMT 32.270691 74.424355 8,000 182 287 64
2019-09-21 00:44:41 GMT 32.286163 74.424866 8,000 182 288 64
2019-09-21 00:44:31 GMT 32.299385 74.425308 8,000 182 288 -64
2019-09-21 00:44:20 GMT 32.314362 74.425781 8,050 182 288 -512
2019-09-21 00:44:10 GMT 32.328480 74.426208 8,225 182 284 -1664
2019-09-21 00:43:59 GMT 32.342651 74.426659 8,400 182 283 64
2019-09-21 00:43:48 GMT 32.359764 74.427216 8,100 182 280 2304
2019-09-21 00:43:36 GMT 32.373505 74.427650 7,650 182 280 2560
2019-09-21 00:43:24 GMT 32.386917 74.428085 7,200 182 281 2688
2019-09-21 00:43:14 GMT 32.401520 74.428452 6,700 182 281 2560
2019-09-21 00:43:04 GMT 32.415722 74.428787 6,200 182 282 2752

Making use of Plane Finder data

You are free to use the raw flight data, aircraft information and images provided in this report for your own purposes provided the data is correctly attributed to Plane Finder. We ask that you please credit Plane Finder and link to planefinder.net in close proximity to the content.

Optionally one of the following logos (no smaller then 150x24px) can be used and must link to planefinder.net

Embedding the Plane Finder map

You are welcome to embed the Plane Finder playback map on your website to offer visitors a more interactive experience. We suggest using the following HTML code:

<iframe src="//planefinder.net/data/report/FZ338-A6-FGB-7700-squawk-2019-09-21/map" width="800" height="600" seamless="seamless"></iframe>

Where our data comes from

Plane Finder has a global network of data feeds and antenna radars that receive data broadcast directly from aircraft. The primary technologies used are ADS-B and MLAT. We also show feeds from the FAA and a FLARM glider feed.

Click here to find out more about the Plane Finder network.

How we collect our data